Latest Weather Observations for Sydney - Observatory Hill

IDN60801

Issued at 10:32 pm EST Saturday 25 April 2015 (issued every 30 minutes, with the page automatically refreshed every 10 minutes)

About weather observations | Map of weather stations | Latest weather observations for NSW | Other Formats
Station Details ID: 066062 Name: SYDNEY (OBSERVATORY HILL) Lat: -33.86 Lon: 151.21 Height: 39.0 m
Data from the previous 72 hours. | See also: Recent months at Sydney - Observatory Hill

* Apparent temperature (App Temp) for Sydney - Observatory Hill is calculated using temperature observations collected at Sydney - Observatory Hill and wind observations collected at Fort Denison, as wind observations are not currently provided for Sydney - Observatory Hill.

Date/Time
EST
Temp
°C
App
Temp
°C
Dew
Point
Rel
Hum
%
Delta-T
°C
Wind Press
QNH
hPa
Press
MSL
hPa
Rain
since 9 am
mm
Dir
 
Spd
km/h
Gust
km/h
Spd
kts
Gust
kts
25/10:00pm 14.8 12.5 11.8 82 1.6 SE 15 - 8 - 1007.7 1007.6 12.2
25/09:30pm 15.2 12.1 11.6 79 1.9 SSW 19 - 10 - 1008.1 1008.0 11.6
25/09:00pm 15.3 11.9 11.3 77 2.1 SSW 20 - 11 - 1008.3 1008.2 11.6
25/08:30pm 15.5 13.3 12.1 80 1.9 SSW 15 - 8 - 1008.4 1008.3 11.6
25/08:00pm 15.5 13.3 13.3 87 1.2 SSW 17 - 9 - 1007.0 1006.9 11.6
25/07:30pm 15.5 15.5 13.5 88 1.1 SW 6 - 3 - 1007.4 1007.3 11.4
25/07:00pm 15.6 15.2 12.9 84 1.5 W 7 - 4 - 1007.2 1007.1 11.4
25/06:30pm 16.1 15.6 12.8 81 1.8 E 7 - 4 - 1006.0 1005.9 11.4
25/05:30pm 14.4 11.6 11.4 82 1.6 E 17 - 9 - 1005.8 1005.7 11.4
25/05:00pm 14.5 8.8 13.0 91 0.8 SW 35 - 19 - 1005.5 1005.4 11.4
25/04:48pm 15.6 - 10.4 71 2.7 - - - - - 1006.8 1006.7 2.8
25/04:30pm 20.8 17.5 12.8 60 4.5 E 22 - 12 - 1005.0 1004.9 0.0
25/04:00pm 21.0 18.3 12.9 60 4.6 E 19 - 10 - 1004.5 1004.4 0.0
25/03:30pm 21.6 18.4 11.9 54 5.4 ENE 20 - 11 - 1004.7 1004.6 0.0
25/03:00pm 22.5 19.3 11.3 49 6.3 ENE 19 - 10 - 1004.8 1004.7 0.0
25/02:30pm 23.2 20.3 10.9 46 6.8 ENE 17 - 9 - 1005.0 1004.9 0.0
25/02:00pm 23.0 20.1 11.1 47 6.7 ENE 17 - 9 - 1005.2 1005.1 0.0
25/01:30pm 23.5 20.3 11.2 46 6.9 ENE 19 - 10 - 1005.6 1005.5 0.0
25/01:00pm 24.9 22.9 10.0 39 8.2 ENE 11 - 6 - 1006.0 1005.9 0.0
25/12:30pm 24.6 22.7 10.5 41 7.9 E 11 - 6 - 1006.5 1006.4 0.0
25/12:00pm 23.4 22.6 11.1 46 6.9 ENE 6 - 3 - 1007.0 1006.9 0.0
25/11:30am 21.6 21.8 11.9 54 5.4 SW 2 - 1 - 1007.3 1007.2 0.0
25/11:00am 20.3 19.5 12.8 62 4.3 W 9 - 5 - 1007.8 1007.7 0.0
25/10:30am 19.1 18.7 13.1 68 3.4 W 7 - 4 - 1008.0 1007.9 0.0
25/09:30am 18.1 15.9 13.2 73 2.8 W 17 - 9 - 1008.7 1008.6 0.0
25/09:00am 17.2 15.0 13.3 78 2.2 W 17 - 9 - 1008.9 1008.8 0.2
25/08:30am 16.7 14.9 13.2 80 2.0 WNW 15 - 8 - 1008.9 1008.8 0.2
25/08:00am 15.9 14.6 13.6 86 1.3 WNW 13 - 7 - 1008.6 1008.5 0.2
25/07:30am 15.3 14.4 13.7 90 0.9 W 11 - 6 - 1008.5 1008.4 0.2
25/07:00am 14.6 13.0 12.8 89 1.0 WNW 13 - 7 - 1008.0 1007.9 0.2
25/06:30am 14.5 12.6 13.0 91 0.8 W 15 - 8 - 1007.7 1007.6 0.2
25/05:30am 14.8 12.8 12.7 87 1.2 W 15 - 8 - 1007.3 1007.2 0.2
25/05:00am 14.8 13.1 12.5 86 1.3 WNW 13 - 7 - 1007.2 1007.1 0.2
25/04:30am 15.3 13.3 12.6 84 1.5 W 15 - 8 - 1007.3 1007.2 0.2
25/04:00am 15.7 14.0 12.6 82 1.7 WNW 13 - 7 - 1007.1 1007.0 0.2
25/03:30am 15.7 14.2 13.0 84 1.5 W 13 - 7 - 1007.0 1006.9 0.2
25/03:00am 15.7 14.5 12.8 83 1.6 W 11 - 6 - 1007.1 1007.0 0.2
25/02:30am 16.0 15.0 13.3 84 1.5 W 11 - 6 - 1007.1 1007.0 0.2
25/02:00am 16.2 14.6 12.9 81 1.8 W 13 - 7 - 1007.2 1007.1 0.2
25/01:30am 16.8 15.2 12.9 78 2.2 W 13 - 7 - 1007.2 1007.1 0.2
25/01:00am 16.9 15.8 13.0 78 2.2 WNW 11 - 6 - 1007.2 1007.1 0.2
25/12:30am 16.9 15.6 12.4 75 2.5 W 11 - 6 - 1007.2 1007.1 0.2
25/12:00am 17.4 16.2 12.9 75 2.5 W 11 - 6 - 1007.2 1007.1 0.2
 
Date/Time
EST
Temp
°C
App
Temp
°C
Dew
Point
Rel
Hum
%
Delta-T
°C
Wind Press
QNH
hPa
Press
MSL
hPa
Rain
since 9 am
mm
Dir
 
Spd
km/h
Gust
km/h
Spd
kts
Gust
kts
24/11:30pm 17.4 16.2 12.9 75 2.5 W 11 - 6 - 1007.2 1007.1 0.2
24/11:00pm 17.8 17.1 13.1 74 2.7 W 9 - 5 - 1007.1 1007.0 0.2
24/10:30pm 17.7 17.0 13.2 75 2.5 W 9 - 5 - 1007.1 1007.0 0.2
24/10:00pm 18.0 17.5 13.7 76 2.5 WNW 9 - 5 - 1007.0 1006.9 0.2
24/09:30pm 18.8 18.3 13.9 73 2.8 W 9 - 5 - 1007.1 1007.0 0.2
24/09:00pm 19.8 19.4 14.0 69 3.4 WNW 9 - 5 - 1007.0 1006.9 0.2
24/08:30pm 19.8 19.6 13.7 68 3.5 W 7 - 4 - 1006.8 1006.7 0.2
24/08:00pm 20.1 19.7 13.1 64 4.0 NW 7 - 4 - 1006.5 1006.4 0.2
24/07:30pm 20.4 19.9 13.8 66 3.8 WSW 9 - 5 - 1006.3 1006.2 0.2
24/07:00pm 20.9 21.3 13.8 64 4.1 WNW 4 - 2 - 1006.0 1005.9 0.2
24/06:30pm 20.9 21.1 13.1 61 4.5 W 4 - 2 - 1005.7 1005.6 0.2
24/06:00pm 21.3 21.0 13.2 60 4.7 NW 7 - 4 - 1005.4 1005.3 0.2
24/05:30pm 21.7 21.2 12.8 57 5.1 NW 7 - 4 - 1005.0 1004.9 0.2
24/05:00pm 22.9 22.1 12.8 53 5.8 W 9 - 5 - 1004.8 1004.7 0.2
24/04:30pm 23.3 24.2 14.0 56 5.5 WNW 2 - 1 - 1004.7 1004.6 0.2
24/04:00pm 23.9 24.0 14.0 54 5.8 ESE 6 - 3 - 1004.4 1004.3 0.2
24/03:30pm 24.0 24.6 15.8 60 5.0 ESE 7 - 4 - 1004.4 1004.3 0.2
24/03:00pm 23.9 23.2 15.4 59 5.1 E 13 - 7 - 1004.5 1004.4 0.2
24/02:30pm 24.0 23.8 14.7 56 5.5 ESE 9 - 5 - 1004.7 1004.6 0.2
24/02:00pm 23.9 23.8 15.9 61 4.9 E 11 - 6 - 1004.9 1004.8 0.2
24/01:30pm 22.9 22.1 16.2 66 4.1 ENE 15 - 8 - 1005.2 1005.1 0.2
24/01:00pm 22.9 21.6 14.7 60 4.9 E 15 - 8 - 1005.2 1005.1 0.2
24/12:30pm 24.5 23.1 14.6 54 5.9 E 15 - 8 - 1005.6 1005.5 0.2
24/12:00pm 23.7 24.6 16.2 63 4.6 W 6 - 3 - 1006.1 1006.0 0.0
24/11:30am 22.0 21.9 16.9 73 3.1 W 13 - 7 - 1006.5 1006.4 0.0
24/11:00am 20.3 20.6 16.9 81 2.1 WNW 11 - 6 - 1006.9 1006.8 0.0
24/10:30am 19.2 19.3 16.6 85 1.6 W 11 - 6 - 1007.1 1007.0 0.0
24/10:00am 18.4 19.4 16.4 88 1.2 WSW 6 - 3 - 1007.5 1007.4 0.0
24/09:30am 17.6 17.4 15.8 89 1.1 W 11 - 6 - 1007.8 1007.7 0.0
24/09:00am 17.3 17.0 15.5 89 1.1 WNW 11 - 6 - 1008.1 1008.0 0.0
24/08:30am 17.5 17.9 15.3 87 1.3 W 7 - 4 - 1008.1 1008.0 0.0
24/08:00am 17.1 17.6 15.6 91 0.9 WNW 7 - 4 - 1008.1 1008.0 0.0
24/07:30am 16.3 17.2 16.0 98 0.2 NW 6 - 3 - 1008.1 1008.0 0.0
24/07:00am 15.6 15.7 15.4 99 0.1 WNW 9 - 5 - 1008.1 1008.0 0.0
24/06:30am 15.1 14.2 14.8 98 0.2 WNW 13 - 7 - 1008.1 1008.0 0.0
24/06:00am 15.1 14.9 14.8 98 0.2 NW 9 - 5 - 1007.8 1007.7 0.0
24/05:30am 15.1 15.4 14.6 97 0.3 WNW 6 - 3 - 1007.4 1007.3 0.0
24/05:00am 15.4 15.0 15.1 98 0.2 WNW 11 - 6 - 1007.6 1007.5 0.0
24/04:30am 15.5 15.1 15.2 98 0.2 W 11 - 6 - 1007.8 1007.7 0.0
24/04:00am 15.6 15.6 15.1 97 0.3 W 9 - 5 - 1007.8 1007.7 0.0
24/03:30am 15.7 14.9 15.2 97 0.3 W 13 - 7 - 1008.0 1007.9 0.0
24/03:00am 15.9 15.6 15.4 97 0.3 W 11 - 6 - 1008.2 1008.1 0.0
24/02:30am 16.0 15.8 15.7 98 0.2 W 11 - 6 - 1008.5 1008.4 0.0
24/02:00am 16.0 16.1 15.5 97 0.3 W 9 - 5 - 1008.7 1008.6 0.0
24/01:30am 15.9 15.6 15.4 97 0.3 W 11 - 6 - 1008.8 1008.7 0.0
24/01:00am 15.9 14.8 15.3 96 0.3 WNW 15 - 8 - 1009.2 1009.1 0.0
24/12:30am 16.4 16.3 15.9 97 0.3 WNW 11 - 6 - 1009.2 1009.1 0.0
24/12:00am 16.3 15.7 15.7 96 0.4 W 13 - 7 - 1009.5 1009.4 0.0
 
Date/Time
EST
Temp
°C
App
Temp
°C
Dew
Point
Rel
Hum
%
Delta-T
°C
Wind Press
QNH
hPa
Press
MSL
hPa
Rain
since 9 am
mm
Dir
 
Spd
km/h
Gust
km/h
Spd
kts
Gust
kts
23/11:30pm 16.3 16.1 15.7 96 0.4 W 11 - 6 - 1009.8 1009.7 0.0
23/11:00pm 16.4 17.1 15.6 95 0.5 NW 6 - 3 - 1010.1 1010.0 0.0
23/10:30pm 16.4 16.5 15.6 95 0.5 W 9 - 5 - 1010.2 1010.1 0.0
23/10:00pm 16.7 16.1 15.7 94 0.6 WNW 13 - 7 - 1010.6 1010.5 0.0
23/09:30pm 17.0 17.6 15.9 93 0.6 WNW 7 - 4 - 1010.7 1010.6 0.0
23/09:00pm 17.2 18.8 15.9 92 0.8 NNW 2 - 1 - 1010.8 1010.7 0.0
23/08:30pm 17.3 18.5 16.0 92 0.8 WNW 4 - 2 - 1010.9 1010.8 0.0
23/08:00pm 17.5 17.7 15.8 90 1.0 W 9 - 5 - 1011.1 1011.0 0.0
23/07:30pm 18.2 19.6 16.4 89 1.1 WNW 4 - 2 - 1010.9 1010.8 0.0
23/07:00pm 18.7 20.1 16.3 86 1.4 N 4 - 2 - 1010.6 1010.5 0.0
23/06:30pm 19.7 21.5 16.5 82 1.9 N 2 - 1 - 1010.6 1010.5 0.0
23/06:00pm 19.7 21.2 16.7 83 1.8 ESE 4 - 2 - 1010.1 1010.0 0.0
23/05:30pm 19.5 20.3 16.3 82 1.9 SE 7 - 4 - 1009.8 1009.7 0.0
23/05:00pm 20.1 21.1 16.3 79 2.3 SE 6 - 3 - 1009.6 1009.5 0.0
23/04:30pm 20.4 20.0 15.2 72 3.1 ESE 11 - 6 - 1009.5 1009.4 0.0
23/04:00pm 21.0 20.6 15.3 70 3.4 ESE 11 - 6 - 1009.6 1009.5 0.0
23/03:30pm 21.8 21.7 13.9 61 4.6 ESE 7 - 4 - 1009.7 1009.6 0.0
23/03:00pm 23.1 22.6 13.8 55 5.4 SE 9 - 5 - 1009.7 1009.6 0.0
23/02:30pm 22.9 21.9 14.7 60 4.9 ESE 13 - 7 - 1009.9 1009.8 0.0
23/02:00pm 22.2 21.1 14.3 61 4.6 SE 13 - 7 - 1010.1 1010.0 0.0
23/01:30pm 22.2 20.7 15.3 65 4.1 SSE 17 - 9 - 1010.2 1010.1 0.0
23/01:00pm 22.3 20.3 15.6 66 4.0 SE 20 - 11 - 1010.2 1010.1 0.0
23/12:30pm 21.3 21.3 17.3 78 2.5 SSE 13 - 7 - 1010.6 1010.5 0.0
23/12:00pm 20.5 20.6 17.5 83 1.8 SSE 13 - 7 - 1011.2 1011.1 0.0
23/11:30am 20.8 20.0 17.2 80 2.2 S 17 - 9 - 1011.5 1011.4 0.0
23/11:00am 20.1 19.6 17.9 87 1.4 S 17 - 9 - 1011.9 1011.8 0.0
23/10:30am 19.1 20.3 18.3 95 0.5 W 9 - 5 - 1012.2 1012.1 0.0
23/10:00am 17.7 17.7 17.2 97 0.3 WNW 13 - 7 - 1012.3 1012.2 0.0
23/09:30am 16.6 17.0 16.3 98 0.2 WNW 9 - 5 - 1012.5 1012.4 0.0
23/09:00am 16.4 16.0 16.1 98 0.2 WNW 13 - 7 - 1012.4 1012.3 29.0
23/08:30am 16.0 15.4 15.7 98 0.2 W 13 - 7 - 1012.6 1012.5 29.0
23/08:00am 15.7 14.2 15.4 98 0.2 W 17 - 9 - 1012.5 1012.4 29.0
23/07:30am 15.7 13.9 15.5 99 0.1 W 19 - 10 - 1012.4 1012.3 29.0
23/07:00am 15.4 13.3 15.2 99 0.1 WNW 20 - 11 - 1012.4 1012.3 29.0
23/06:30am 14.8 12.5 14.6 99 0.1 W 20 - 11 - 1012.0 1011.9 29.0
23/06:00am 14.7 13.7 14.5 99 0.1 W 13 - 7 - 1011.6 1011.5 29.0
23/05:30am 14.9 15.1 14.7 99 0.1 W 7 - 4 - 1011.3 1011.2 29.0
23/05:00am 14.6 13.9 14.4 99 0.1 W 11 - 6 - 1011.2 1011.1 29.0
23/04:30am 14.8 13.8 14.6 99 0.1 WNW 13 - 7 - 1010.7 1010.6 29.0
23/04:00am 14.8 13.4 14.6 99 0.1 WNW 15 - 8 - 1010.6 1010.5 29.0
23/03:30am 15.3 15.3 15.1 99 0.1 W 9 - 5 - 1010.7 1010.6 29.0
23/03:00am 15.6 14.5 15.4 99 0.1 WNW 15 - 8 - 1010.6 1010.5 29.0
23/02:30am 15.6 14.9 15.3 98 0.2 W 13 - 7 - 1010.9 1010.8 29.0
23/02:00am 15.8 16.3 15.5 98 0.2 WNW 7 - 4 - 1011.1 1011.0 29.0
23/01:30am 16.0 16.6 15.7 98 0.2 W 7 - 4 - 1011.1 1011.0 29.0
23/01:00am 16.4 16.0 16.1 98 0.2 WSW 13 - 7 - 1011.2 1011.1 29.0
23/12:30am 16.5 16.1 16.2 98 0.2 W 13 - 7 - 1011.4 1011.3 29.0
23/12:00am 16.6 16.2 16.3 98 0.2 W 13 - 7 - 1011.5 1011.4 29.0
 
Date/Time
EST
Temp
°C
App
Temp
°C
Dew
Point
Rel
Hum
%
Delta-T
°C
Wind Press
QNH
hPa
Press
MSL
hPa
Rain
since 9 am
mm
Dir
 
Spd
km/h
Gust
km/h
Spd
kts
Gust
kts
22/11:30pm 16.8 16.8 16.3 97 0.3 W 11 - 6 - 1011.5 1011.4 29.0
22/11:00pm 17.0 16.8 16.7 98 0.2 SW 13 - 7 - 1011.7 1011.6 29.0

Other Formats:

Comma delimited format used in spreadsheet applications
http://www.bom.gov.au/fwo/IDN60801/IDN60801.94768.axf

JavaScript Object Notation format (JSON) in row-major order
http://www.bom.gov.au/fwo/IDN60801/IDN60801.94768.json